Hlavní strana
METAR-TAF:

METAR-TAF

Letiště :

Stockholm-Arlanda, Švédsko

zeměpisná šířka: 59-39N, zeměpisná délka: 017-57E, výška: 38 m

Aktuální stav počasí

Zpráva byla vytvořena před 39 minutami, v 01:50 UTC
Jižní vítr 6 kt
Teplota 2°C
Vlhkost vzduchu 93%
Tlak 1027 hPa
Viditelnost 10 km a více
Žádná oblačnost pod 1500 m, nevyskytují se cumulonimby.

METAR: ESSA 060150Z 17006KT CAVOK 02/01 Q1027 R01L/09//95 R01R/09//95 R08/09//95 NOSIG

Čas: 04:29 (02:29 UTC)

Předpověď počasí

Zpráva byla vytvořena před 2 hodinami a 59 minutami, v 23:30 UTC
Předpověď platná od 06 v 00 UTC do 06 v 24 UTC
Jižní vítr 4 kt
Viditelnost 10 km a více
Žádná oblačnost pod 1500 m, nevyskytují se cumulonimby.
Změna
od 06 v 10 UTC do 06 v 12 UTC
Jižní vítr 14 kt
Změna
od 06 v 21 UTC do 06 v 23 UTC
Jižní vítr 4 kt

TAF: ESSA 052330Z 0600/0624 18004KT CAVOK BECMG 0610/0612 18014KT BECMG 0621/0623 18004KT

Stav a předpovědi počasí z více než 4 000 letišť (zprávy METAR a TAF).

Červené a žluté tečky na mapě představují dostupné meteorologické stanice.

Když kurzor umístíte na tečku, zobrazí se název stanice.

Pak kliknutím zobrazíte stav a předpověď počasí.

Chcete-li změnit mapu, kliknutím na zelené tlačítko se znaménkem +mapu přiblížíte, kliknutím na zelené tlačítko se znaménkem – mapu oddálíte a kliknutím na zelené šipky přejdete na sousední mapy.


METAR-TAF: